createdAt,value
2022-12-19T00:00:28.716Z,39.17
2022-12-19T00:02:56.503Z,33.23
2022-12-19T00:05:24.659Z,32.27
2022-12-19T00:07:53.809Z,39.57
2022-12-19T00:10:21.399Z,37.43
2022-12-19T00:12:49.096Z,39.00
2022-12-19T00:15:16.674Z,25.37
2022-12-19T00:17:44.300Z,30.37
2022-12-19T00:20:11.930Z,30.30
2022-12-19T00:22:42.194Z,28.90
2022-12-19T00:25:09.899Z,32.90
2022-12-19T00:27:38.750Z,43.27
2022-12-19T00:30:06.919Z,32.03
2022-12-19T00:32:34.539Z,42.33
2022-12-19T00:35:02.102Z,39.33
2022-12-19T00:37:29.701Z,36.13
2022-12-19T00:39:57.268Z,37.17
2022-12-19T00:42:24.957Z,34.23
2022-12-19T00:44:52.506Z,39.40
2022-12-19T00:47:20.113Z,44.03
2022-12-19T00:49:47.676Z,36.37
2022-12-19T00:52:17.358Z,51.07
2022-12-19T00:54:44.890Z,49.97
2022-12-19T00:57:12.533Z,51.63
2022-12-19T00:59:41.559Z,41.63
2022-12-19T01:02:09.330Z,49.23
2022-12-19T01:04:41.534Z,54.57
2022-12-19T01:07:13.278Z,49.33
2022-12-19T01:09:40.995Z,53.07
2022-12-19T01:12:29.530Z,45.53
2022-12-19T01:15:04.113Z,37.60
2022-12-19T01:17:37.073Z,44.03
2022-12-19T01:20:15.240Z,48.37
2022-12-19T01:22:43.543Z,47.97
2022-12-19T01:25:14.316Z,44.47
2022-12-19T01:27:42.238Z,50.30
2022-12-19T01:30:10.970Z,51.40
2022-12-19T01:32:39.260Z,52.73
2022-12-19T01:35:09.849Z,52.13
2022-12-19T01:37:49.710Z,47.00
2022-12-19T01:40:17.458Z,39.20
2022-12-19T01:42:45.132Z,41.67
2022-12-19T01:45:15.439Z,38.97
2022-12-19T01:47:57.317Z,41.20
2022-12-19T01:50:37.768Z,34.50
2022-12-19T01:53:11.623Z,45.10
2022-12-19T01:55:41.144Z,42.97
2022-12-19T01:58:10.561Z,39.83
2022-12-19T02:00:38.525Z,46.20
2022-12-19T02:03:12.905Z,45.35
2022-12-19T02:05:45.720Z,51.20
2022-12-19T02:08:14.539Z,57.00
2022-12-19T02:10:42.179Z,53.90
2022-12-19T02:13:10.749Z,62.67
2022-12-19T02:16:07.720Z,46.93
2022-12-19T02:18:40.465Z,46.80
2022-12-19T02:21:18.234Z,58.87
2022-12-19T02:23:46.346Z,53.97
2022-12-19T02:26:18.012Z,50.73
2022-12-19T02:29:06.787Z,49.83
2022-12-19T02:31:50.203Z,50.33
2022-12-19T02:34:30.085Z,65.50
2022-12-19T02:37:20.922Z,47.93
2022-12-19T02:40:14.999Z,39.80
2022-12-19T02:42:48.219Z,54.60
2022-12-19T02:45:20.788Z,43.77
2022-12-19T02:48:05.818Z,54.10
2022-12-19T02:50:45.427Z,51.33
2022-12-19T02:53:17.006Z,51.93
2022-12-19T02:56:15.045Z,58.40
2022-12-19T02:59:16.133Z,56.67
2022-12-19T03:02:13.112Z,58.20
2022-12-19T03:04:49.670Z,54.53
2022-12-19T03:07:26.130Z,47.13
2022-12-19T03:10:09.532Z,47.10
2022-12-19T03:12:57.858Z,61.50
2022-12-19T03:15:26.920Z,59.40
2022-12-19T03:18:00.658Z,46.30
2022-12-19T03:20:34.177Z,50.33
2022-12-19T03:23:01.818Z,50.17
2022-12-19T03:25:30.729Z,42.73
2022-12-19T03:28:04.949Z,46.80
2022-12-19T03:30:34.495Z,40.77
2022-12-19T03:33:03.593Z,49.20
2022-12-19T03:35:33.513Z,42.78
2022-12-19T03:38:04.667Z,50.87
2022-12-19T03:40:34.892Z,45.20
2022-12-19T03:43:12.334Z,51.95
2022-12-19T03:45:48.304Z,62.80
2022-12-19T03:48:28.076Z,55.17
2022-12-19T03:51:27.630Z,57.80
2022-12-19T03:54:02.538Z,57.78
2022-12-19T03:56:56.566Z,48.17
2022-12-19T03:59:36.155Z,63.40
2022-12-19T04:02:04.924Z,55.23
2022-12-19T04:04:37.173Z,48.47
2022-12-19T04:07:06.639Z,59.80
2022-12-19T04:09:35.502Z,47.07
2022-12-19T04:12:11.336Z,91.87
2022-12-19T04:14:39.884Z,74.25
2022-12-19T04:17:15.728Z,65.15
2022-12-19T04:19:59.949Z,43.97
2022-12-19T04:22:32.617Z,46.47
2022-12-19T04:25:01.486Z,40.80
2022-12-19T04:27:33.737Z,46.23
2022-12-19T04:30:03.012Z,37.97
2022-12-19T04:32:34.421Z,45.23
2022-12-19T04:35:02.900Z,48.77
2022-12-19T04:37:31.968Z,46.37
2022-12-19T04:39:59.968Z,62.35
2022-12-19T04:42:27.537Z,59.67
2022-12-19T04:44:55.153Z,53.50
2022-12-19T04:47:23.050Z,52.97
2022-12-19T04:49:50.621Z,56.97
2022-12-19T04:52:18.331Z,55.70
2022-12-19T04:54:45.981Z,50.35
2022-12-19T04:57:13.559Z,49.87
2022-12-19T04:59:41.207Z,46.90
2022-12-19T05:02:08.885Z,58.05
2022-12-19T05:04:36.549Z,44.20
2022-12-19T05:07:04.073Z,49.33
2022-12-19T05:09:31.682Z,54.80
2022-12-19T05:11:59.461Z,58.17
2022-12-19T05:14:27.296Z,43.80
2022-12-19T05:17:00.536Z,43.55
2022-12-19T05:19:29.396Z,46.78
2022-12-19T05:21:56.953Z,44.13
2022-12-19T05:24:24.647Z,55.60
2022-12-19T05:26:52.174Z,57.20
2022-12-19T05:29:19.901Z,46.33
2022-12-19T05:31:47.604Z,48.78
2022-12-19T05:34:15.213Z,41.50
2022-12-19T05:36:43.050Z,42.10
2022-12-19T05:39:11.766Z,34.58
2022-12-19T05:41:39.419Z,39.15
2022-12-19T05:44:07.080Z,38.28
2022-12-19T05:46:34.766Z,42.87
2022-12-19T05:49:02.413Z,46.23
2022-12-19T05:51:30.890Z,35.93
2022-12-19T05:54:00.676Z,34.00
2022-12-19T05:56:28.243Z,42.47
2022-12-19T05:58:56.800Z,42.28
2022-12-19T06:01:27.111Z,39.53
2022-12-19T06:03:55.424Z,41.87
2022-12-19T06:06:25.611Z,48.37
2022-12-19T06:08:58.225Z,45.17
2022-12-19T06:11:27.075Z,53.05
2022-12-19T06:13:54.661Z,56.25
2022-12-19T06:16:23.637Z,49.97
2022-12-19T06:18:51.710Z,50.10
2022-12-19T06:21:21.946Z,42.60
2022-12-19T06:23:49.704Z,44.50
2022-12-19T06:26:20.518Z,44.47
2022-12-19T06:28:49.700Z,51.08
2022-12-19T06:31:18.341Z,48.83
2022-12-19T06:33:46.147Z,48.40
2022-12-19T06:36:19.158Z,45.10
2022-12-19T06:38:46.939Z,42.17
2022-12-19T06:41:34.053Z,56.63
2022-12-19T06:44:04.553Z,54.00
2022-12-19T06:46:32.691Z,48.92
2022-12-19T06:49:00.300Z,38.83
2022-12-19T06:51:28.452Z,74.07
2022-12-19T06:53:56.097Z,44.17
2022-12-19T06:56:24.113Z,59.80
2022-12-19T06:58:51.746Z,44.30
2022-12-19T07:01:24.779Z,45.38
2022-12-19T07:03:52.602Z,52.43
2022-12-19T07:06:20.490Z,45.88
2022-12-19T07:08:48.137Z,46.85
2022-12-19T07:11:15.756Z,48.10
2022-12-19T07:13:43.336Z,44.83
2022-12-19T07:16:10.989Z,40.45
2022-12-19T07:18:40.291Z,38.72
2022-12-19T07:21:11.314Z,43.97
2022-12-19T07:23:39.753Z,39.53
2022-12-19T07:26:07.509Z,44.03
2022-12-19T07:28:35.854Z,38.77
2022-12-19T07:31:03.610Z,33.78
2022-12-19T07:33:31.130Z,37.30
2022-12-19T07:35:58.751Z,41.17
2022-12-19T07:38:26.320Z,42.58
2022-12-19T07:40:53.833Z,42.78
2022-12-19T07:43:21.458Z,47.95
2022-12-19T07:45:55.040Z,41.30
2022-12-19T07:48:23.451Z,39.65
2022-12-19T07:50:51.198Z,50.70
2022-12-19T07:53:18.705Z,45.38
2022-12-19T07:55:50.117Z,37.92
2022-12-19T07:58:17.801Z,39.13
2022-12-19T08:00:45.635Z,37.63
2022-12-19T08:03:13.360Z,36.70
2022-12-19T08:05:40.971Z,33.83
2022-12-19T08:08:10.249Z,44.10
2022-12-19T08:10:37.832Z,42.15
2022-12-19T08:13:05.720Z,36.70
2022-12-19T08:15:33.386Z,31.40
2022-12-19T08:18:01.732Z,33.60
2022-12-19T08:20:29.977Z,34.28
2022-12-19T08:22:57.590Z,35.30
2022-12-19T08:25:25.219Z,34.25
2022-12-19T08:27:52.804Z,31.33
2022-12-19T08:30:20.505Z,32.22
2022-12-19T08:32:48.481Z,33.03
2022-12-19T08:35:16.126Z,35.25
2022-12-19T08:37:43.670Z,31.33
2022-12-19T08:40:12.035Z,33.45
2022-12-19T08:42:39.598Z,26.27
2022-12-19T08:45:07.909Z,24.67
2022-12-19T08:47:35.683Z,34.95
2022-12-19T08:50:03.449Z,27.48
2022-12-19T08:52:31.069Z,30.58
2022-12-19T08:54:58.914Z,22.10
2022-12-19T08:57:26.653Z,28.00
2022-12-19T08:59:54.341Z,30.48
2022-12-19T09:02:24.359Z,29.80
2022-12-19T09:06:01.587Z,33.85
2022-12-19T09:07:40.901Z,24.63
2022-12-19T09:10:08.790Z,19.90
2022-12-19T09:12:36.376Z,32.77
2022-12-19T09:15:04.427Z,24.58
2022-12-19T09:17:31.954Z,21.00
2022-12-19T09:19:59.943Z,32.43
2022-12-19T09:22:29.590Z,31.40
2022-12-19T09:24:58.377Z,50.33
2022-12-19T09:27:25.992Z,60.83
2022-12-19T09:29:53.511Z,60.08
2022-12-19T09:32:21.249Z,50.95
2022-12-19T09:34:48.795Z,31.07
2022-12-19T09:37:17.673Z,33.20
2022-12-19T09:39:47.441Z,36.63
2022-12-19T09:42:28.425Z,26.20
2022-12-19T09:45:18.000Z,26.45
2022-12-19T09:48:01.063Z,31.57
2022-12-19T09:50:51.932Z,25.97
2022-12-19T09:53:58.697Z,29.80
2022-12-19T09:56:30.261Z,18.43
2022-12-19T09:59:22.269Z,23.30
2022-12-19T10:02:20.144Z,20.80
2022-12-19T10:05:11.439Z,24.10
2022-12-19T10:08:07.864Z,25.70
2022-12-19T10:12:39.486Z,20.93
2022-12-19T10:13:59.109Z,16.83
2022-12-19T10:17:02.022Z,26.37
2022-12-19T10:19:53.829Z,23.17
2022-12-19T10:22:36.395Z,28.63
2022-12-19T10:25:38.098Z,29.13
2022-12-19T10:28:11.794Z,25.53
2022-12-19T10:30:49.885Z,29.53
2022-12-19T10:33:47.186Z,26.63
2022-12-19T10:36:15.675Z,20.00
2022-12-19T10:39:02.969Z,16.07
2022-12-19T10:41:36.762Z,21.60
2022-12-19T10:44:13.505Z,22.07
2022-12-19T10:46:42.683Z,21.37
2022-12-19T10:49:24.957Z,22.55
2022-12-19T10:51:56.324Z,24.20
2022-12-19T10:54:33.083Z,21.73
2022-12-19T10:57:23.525Z,26.73
2022-12-19T11:00:04.114Z,36.23
2022-12-19T11:02:46.890Z,23.20
2022-12-19T11:05:43.109Z,23.98
2022-12-19T11:08:10.648Z,27.70
2022-12-19T11:13:19.461Z,31.87
2022-12-19T11:19:59.544Z,21.30
2022-12-19T11:29:27.341Z,24.43
2022-12-19T11:29:33.109Z,24.27
2022-12-19T11:29:38.939Z,27.77
2022-12-19T11:30:41.126Z,27.52
2022-12-19T11:34:06.192Z,30.42
2022-12-19T11:36:44.976Z,27.97
2022-12-19T11:39:45.138Z,28.63
2022-12-19T11:42:25.576Z,30.33
2022-12-19T11:45:06.952Z,32.63
2022-12-19T11:47:42.223Z,26.57
2022-12-19T11:50:26.652Z,25.80
2022-12-19T11:53:23.310Z,25.42
2022-12-19T11:55:53.938Z,22.85
2022-12-19T11:58:24.662Z,27.33
2022-12-19T12:01:17.489Z,24.30
2022-12-19T12:04:12.437Z,20.83
2022-12-19T12:06:52.300Z,24.43
2022-12-19T12:13:47.761Z,26.50
2022-12-19T12:19:32.976Z,22.50
2022-12-19T12:31:04.067Z,28.00
2022-12-19T12:31:15.791Z,24.53
2022-12-19T12:31:46.582Z,29.43
2022-12-19T12:31:46.927Z,30.33
2022-12-19T12:35:34.424Z,25.63
2022-12-19T12:41:03.786Z,30.97
2022-12-19T12:46:22.210Z,26.50
2022-12-19T12:49:06.466Z,27.27
2022-12-19T12:51:35.403Z,28.73
2022-12-19T12:54:09.602Z,37.47
2022-12-19T12:56:37.983Z,38.90
2022-12-19T12:59:19.592Z,34.17
2022-12-19T13:01:57.096Z,28.00
2022-12-19T13:04:29.168Z,23.47
2022-12-19T13:07:13.620Z,27.13
2022-12-19T13:09:42.282Z,21.80
2022-12-19T13:12:46.392Z,24.02
2022-12-19T13:15:29.085Z,19.80
2022-12-19T13:17:56.687Z,23.88
2022-12-19T13:20:24.864Z,30.08
2022-12-19T13:23:01.011Z,29.63
2022-12-19T13:25:34.503Z,31.42
2022-12-19T13:28:02.195Z,31.00
2022-12-19T13:31:11.552Z,25.33
2022-12-19T13:33:21.882Z,31.92
2022-12-19T13:39:46.284Z,29.60
2022-12-19T13:39:57.117Z,27.13
2022-12-19T13:42:01.833Z,29.05
2022-12-19T13:44:31.475Z,28.35
2022-12-19T13:46:59.215Z,24.10
2022-12-19T13:49:34.840Z,27.23
2022-12-19T13:52:04.640Z,24.90
2022-12-19T13:54:44.609Z,19.90
2022-12-19T13:57:21.598Z,28.13
2022-12-19T14:00:00.399Z,26.27
2022-12-19T14:02:45.357Z,27.67
2022-12-19T14:05:30.600Z,24.58
2022-12-19T14:08:25.444Z,17.95
2022-12-19T14:11:33.762Z,18.93
2022-12-19T14:14:31.907Z,26.63
2022-12-19T14:17:07.698Z,25.77
2022-12-19T14:19:47.156Z,34.03
2022-12-19T14:22:25.236Z,30.00
2022-12-19T14:26:06.022Z,24.73
2022-12-19T14:28:26.077Z,22.73
2022-12-19T14:30:46.080Z,24.00
2022-12-19T14:33:45.928Z,19.97
2022-12-19T14:36:14.719Z,26.63
2022-12-19T14:39:22.085Z,30.83
2022-12-19T14:42:02.450Z,26.93
2022-12-19T14:52:11.525Z,21.33
2022-12-19T14:52:25.896Z,26.50
2022-12-19T14:54:26.939Z,28.63
2022-12-19T14:58:51.374Z,20.53
2022-12-19T15:01:08.471Z,25.47
2022-12-19T15:03:23.534Z,24.13
2022-12-19T15:05:53.480Z,29.17
2022-12-19T15:09:17.731Z,27.80
2022-12-19T15:11:58.424Z,23.50
2022-12-19T15:14:59.139Z,23.53
2022-12-19T15:17:28.484Z,25.67
2022-12-19T15:19:56.092Z,27.13
2022-12-19T15:22:23.877Z,25.60
2022-12-19T15:24:51.481Z,29.42
2022-12-19T15:27:19.062Z,27.60
2022-12-19T15:29:46.619Z,30.07
2022-12-19T15:32:16.198Z,29.83
2022-12-19T15:34:50.586Z,24.00
2022-12-19T15:37:19.193Z,25.60
2022-12-19T15:39:46.880Z,22.83
2022-12-19T15:42:20.406Z,24.80
2022-12-19T15:44:48.720Z,30.53
2022-12-19T15:47:21.774Z,28.20
2022-12-19T15:49:49.424Z,30.83
2022-12-19T15:52:19.014Z,32.63
2022-12-19T15:54:48.659Z,32.33
2022-12-19T15:57:30.406Z,33.83
2022-12-19T16:00:07.581Z,39.27
2022-12-19T16:03:13.406Z,35.13
2022-12-19T16:05:26.532Z,37.33
2022-12-19T16:07:54.158Z,36.95
2022-12-19T16:10:22.121Z,45.65
2022-12-19T16:12:52.678Z,45.43
2022-12-19T16:15:29.993Z,44.67
2022-12-19T16:17:59.197Z,44.57
2022-12-19T16:20:29.963Z,36.73
2022-12-19T16:22:57.951Z,39.37
2022-12-19T16:25:37.648Z,38.17
2022-12-19T16:28:07.470Z,39.87
2022-12-19T16:30:35.615Z,37.97
2022-12-19T16:33:03.313Z,36.07
2022-12-19T16:38:19.480Z,34.70
2022-12-19T16:40:48.439Z,31.30
2022-12-19T16:43:36.411Z,26.37
2022-12-19T16:46:06.316Z,24.80
2022-12-19T16:48:36.044Z,37.40
2022-12-19T16:51:03.844Z,25.40
2022-12-19T16:53:31.434Z,28.40
2022-12-19T16:56:00.215Z,22.10
2022-12-19T16:58:29.175Z,35.30
2022-12-19T17:00:57.442Z,29.05
2022-12-19T17:03:37.557Z,31.83
2022-12-19T17:06:05.771Z,28.93
2022-12-19T17:08:33.464Z,27.55
2022-12-19T17:11:01.191Z,29.43
2022-12-19T17:13:28.857Z,29.80
2022-12-19T17:15:58.388Z,26.67
2022-12-19T17:18:30.934Z,28.98
2022-12-19T17:20:58.704Z,23.25
2022-12-19T17:23:29.437Z,25.80
2022-12-19T17:25:57.973Z,23.30
2022-12-19T17:28:26.035Z,25.70
2022-12-19T17:30:57.583Z,22.05
2022-12-19T17:33:32.123Z,27.10
2022-12-19T17:36:01.889Z,34.77
2022-12-19T17:38:29.581Z,27.53
2022-12-19T17:40:57.177Z,30.33
2022-12-19T17:43:25.833Z,34.85
2022-12-19T17:45:53.582Z,27.83
2022-12-19T17:48:33.172Z,33.17
2022-12-19T17:51:00.831Z,28.47
2022-12-19T17:53:28.409Z,25.13
2022-12-19T17:55:56.026Z,29.63
2022-12-19T17:58:23.605Z,29.57
2022-12-19T18:00:51.994Z,33.07
2022-12-19T18:03:26.668Z,23.02
2022-12-19T18:05:55.822Z,29.67
2022-12-19T18:08:29.743Z,27.55
2022-12-19T18:10:59.999Z,20.48
2022-12-19T18:13:30.017Z,25.25
2022-12-19T18:16:00.550Z,22.17
2022-12-19T18:18:34.687Z,20.43
2022-12-19T18:21:03.881Z,22.33
2022-12-19T18:23:31.969Z,25.03
2022-12-19T18:26:02.385Z,23.58
2022-12-19T18:28:30.874Z,26.58
2022-12-19T18:31:06.952Z,28.67
2022-12-19T18:33:40.225Z,28.73
2022-12-19T18:36:13.432Z,34.83
2022-12-19T18:38:41.427Z,36.83
2022-12-19T18:41:11.573Z,33.73
2022-12-19T18:43:39.563Z,40.80
2022-12-19T18:46:11.192Z,37.95
2022-12-19T18:48:39.185Z,25.97
2022-12-19T18:51:07.029Z,31.93
2022-12-19T18:53:36.072Z,58.10
2022-12-19T18:56:06.362Z,90.67
2022-12-19T18:58:34.930Z,80.67
2022-12-19T19:01:04.833Z,59.80
2022-12-19T19:03:40.469Z,50.30
2022-12-19T19:06:20.932Z,34.13
2022-12-19T19:08:50.412Z,28.73
2022-12-19T19:11:32.487Z,32.60
2022-12-19T19:14:00.164Z,29.57
2022-12-19T19:16:28.921Z,32.97
2022-12-19T19:18:58.736Z,23.10
2022-12-19T19:21:35.453Z,32.97
2022-12-19T19:24:14.339Z,32.43
2022-12-19T19:26:44.058Z,35.33
2022-12-19T19:29:15.398Z,32.30
2022-12-19T19:31:48.216Z,29.90
2022-12-19T19:34:22.735Z,30.13
2022-12-19T19:36:55.086Z,35.83
2022-12-19T19:39:23.968Z,29.75
2022-12-19T19:41:51.737Z,26.05
2022-12-19T19:44:19.841Z,33.45
2022-12-19T19:46:48.408Z,29.45
2022-12-19T19:49:16.745Z,34.65
2022-12-19T19:51:44.810Z,38.93
2022-12-19T19:54:12.727Z,47.53
2022-12-19T19:56:40.397Z,46.03
2022-12-19T19:59:08.651Z,34.87
2022-12-19T20:01:36.637Z,42.57
2022-12-19T20:04:04.738Z,34.77
2022-12-19T20:06:33.610Z,29.93
2022-12-19T20:09:02.058Z,33.80
2022-12-19T20:11:31.223Z,32.70
2022-12-19T20:13:59.727Z,35.72
2022-12-19T20:16:28.205Z,34.80
2022-12-19T20:18:56.007Z,30.10
2022-12-19T20:21:25.127Z,86.35
2022-12-19T20:23:53.231Z,43.97
2022-12-19T20:26:21.046Z,37.58
2022-12-19T20:28:51.224Z,37.77
2022-12-19T20:31:21.321Z,29.20
2022-12-19T20:33:50.683Z,36.87
2022-12-19T20:36:19.485Z,32.17
2022-12-19T20:38:48.237Z,30.77
2022-12-19T20:41:17.207Z,33.35
2022-12-19T20:43:45.177Z,30.35
2022-12-19T20:46:16.522Z,31.55
2022-12-19T20:48:45.392Z,37.13
2022-12-19T20:51:15.053Z,31.98
2022-12-19T20:53:43.340Z,29.10
2022-12-19T20:56:16.848Z,31.53
2022-12-19T20:58:46.016Z,24.65
2022-12-19T21:01:17.439Z,31.38
2022-12-19T21:03:45.817Z,33.80
2022-12-19T21:06:18.227Z,29.73
2022-12-19T21:08:46.240Z,27.83
2022-12-19T21:11:15.708Z,29.50
2022-12-19T21:13:43.900Z,24.02
2022-12-19T21:16:14.858Z,30.58
2022-12-19T21:18:43.810Z,32.40
2022-12-19T21:21:31.594Z,30.57
2022-12-19T21:24:01.254Z,26.77
2022-12-19T21:26:28.892Z,30.25
2022-12-19T21:28:58.091Z,29.67
2022-12-19T21:31:29.859Z,26.57
2022-12-19T21:33:59.119Z,28.40
2022-12-19T21:36:27.942Z,25.50
2022-12-19T21:38:57.631Z,26.02
2022-12-19T21:41:25.462Z,28.40
2022-12-19T21:43:55.983Z,25.90
2022-12-19T21:46:29.226Z,27.00
2022-12-19T21:48:57.900Z,22.17
2022-12-19T21:51:28.718Z,38.58
2022-12-19T21:54:00.999Z,33.83
2022-12-19T21:56:36.843Z,28.85
2022-12-19T21:59:07.920Z,30.33
2022-12-19T22:01:35.912Z,28.37
2022-12-19T22:04:06.589Z,36.37
2022-12-19T22:06:37.275Z,30.87
2022-12-19T22:09:07.636Z,32.75
2022-12-19T22:11:36.668Z,28.07
2022-12-19T22:14:05.342Z,26.47
2022-12-19T22:16:34.020Z,30.47
2022-12-19T22:19:02.071Z,28.27
2022-12-19T22:21:29.648Z,28.57
2022-12-19T22:24:01.783Z,35.90
2022-12-19T22:26:32.895Z,30.70
2022-12-19T22:29:00.544Z,33.83
2022-12-19T22:31:31.436Z,32.57
2022-12-19T22:34:01.313Z,38.93
2022-12-19T22:36:30.763Z,36.47
2022-12-19T22:39:00.014Z,35.27
2022-12-19T22:41:28.640Z,30.70
2022-12-19T22:43:56.599Z,26.70
2022-12-19T22:46:42.641Z,26.10
2022-12-19T22:49:12.301Z,30.47
2022-12-19T22:51:40.430Z,27.87
2022-12-19T22:54:08.813Z,30.15
2022-12-19T22:56:36.423Z,35.30
2022-12-19T22:59:07.255Z,27.55
2022-12-19T23:01:43.175Z,29.73
2022-12-19T23:04:14.592Z,25.70
2022-12-19T23:06:42.357Z,31.67
2022-12-19T23:09:13.597Z,31.97
2022-12-19T23:11:43.270Z,29.20
2022-12-19T23:14:14.969Z,30.10
2022-12-19T23:16:43.873Z,31.93
2022-12-19T23:19:11.694Z,30.52
2022-12-19T23:21:39.361Z,34.67
2022-12-19T23:24:07.361Z,29.37
2022-12-19T23:26:37.247Z,31.80
2022-12-19T23:29:10.818Z,29.83
2022-12-19T23:31:43.992Z,34.20
2022-12-19T23:34:12.065Z,27.23
2022-12-19T23:39:27.889Z,30.57
2022-12-19T23:41:55.989Z,32.80
2022-12-19T23:44:23.845Z,33.90
2022-12-19T23:46:51.511Z,27.90
2022-12-19T23:49:19.168Z,29.63
2022-12-19T23:51:46.815Z,34.13
2022-12-19T23:54:14.511Z,30.60
2022-12-19T23:56:42.225Z,34.30
2022-12-19T23:59:09.781Z,42.63
